sensor_id;sensor_type;location;lat;lon;timestamp;P1;durP1;ratioP1;P2;durP2;ratioP2
24485;SDS011;13449;49.374;8.584;2023-04-25T00:00:34;4.05;;;3.13;;
24485;SDS011;13449;49.374;8.584;2023-04-25T00:03:00;4.57;;;3.35;;
24485;SDS011;13449;49.374;8.584;2023-04-25T00:05:27;4.70;;;2.50;;
24485;SDS011;13449;49.374;8.584;2023-04-25T00:07:55;3.05;;;2.75;;
24485;SDS011;13449;49.374;8.584;2023-04-25T00:10:23;4.65;;;2.90;;
24485;SDS011;13449;49.374;8.584;2023-04-25T00:12:50;5.18;;;3.03;;
24485;SDS011;13449;49.374;8.584;2023-04-25T00:15:18;9.13;;;3.83;;
24485;SDS011;13449;49.374;8.584;2023-04-25T00:17:47;7.45;;;3.42;;
24485;SDS011;13449;49.374;8.584;2023-04-25T00:20:14;3.58;;;2.67;;
24485;SDS011;13449;49.374;8.584;2023-04-25T00:22:40;2.95;;;2.65;;
24485;SDS011;13449;49.374;8.584;2023-04-25T00:25:07;4.22;;;2.63;;
24485;SDS011;13449;49.374;8.584;2023-04-25T00:27:33;5.25;;;3.10;;
24485;SDS011;13449;49.374;8.584;2023-04-25T00:30:00;3.35;;;2.75;;
24485;SDS011;13449;49.374;8.584;2023-04-25T00:32:29;7.10;;;3.40;;
24485;SDS011;13449;49.374;8.584;2023-04-25T00:34:55;4.70;;;3.28;;
24485;SDS011;13449;49.374;8.584;2023-04-25T00:37:23;5.30;;;2.60;;
24485;SDS011;13449;49.374;8.584;2023-04-25T00:39:50;15.73;;;4.70;;
24485;SDS011;13449;49.374;8.584;2023-04-25T00:42:17;5.50;;;3.67;;
24485;SDS011;13449;49.374;8.584;2023-04-25T00:44:44;5.28;;;3.80;;
24485;SDS011;13449;49.374;8.584;2023-04-25T00:47:11;7.88;;;3.97;;
24485;SDS011;13449;49.374;8.584;2023-04-25T00:49:38;4.43;;;3.42;;
24485;SDS011;13449;49.374;8.584;2023-04-25T00:52:04;4.13;;;3.45;;
24485;SDS011;13449;49.374;8.584;2023-04-25T00:54:31;7.57;;;4.57;;
24485;SDS011;13449;49.374;8.584;2023-04-25T00:56:57;4.45;;;3.38;;
24485;SDS011;13449;49.374;8.584;2023-04-25T00:59:25;5.57;;;3.17;;
24485;SDS011;13449;49.374;8.584;2023-04-25T01:01:51;5.15;;;3.58;;
24485;SDS011;13449;49.374;8.584;2023-04-25T01:04:18;5.07;;;3.33;;
24485;SDS011;13449;49.374;8.584;2023-04-25T01:06:44;4.40;;;3.15;;
24485;SDS011;13449;49.374;8.584;2023-04-25T01:09:13;8.57;;;3.28;;
24485;SDS011;13449;49.374;8.584;2023-04-25T01:11:42;5.10;;;3.30;;
24485;SDS011;13449;49.374;8.584;2023-04-25T01:14:09;4.38;;;3.53;;
24485;SDS011;13449;49.374;8.584;2023-04-25T01:16:36;7.28;;;3.35;;
24485;SDS011;13449;49.374;8.584;2023-04-25T01:19:09;8.18;;;3.63;;
24485;SDS011;13449;49.374;8.584;2023-04-25T01:21:39;3.88;;;3.20;;
24485;SDS011;13449;49.374;8.584;2023-04-25T01:24:08;4.90;;;3.30;;
24485;SDS011;13449;49.374;8.584;2023-04-25T01:26:35;6.57;;;3.15;;
24485;SDS011;13449;49.374;8.584;2023-04-25T01:29:07;5.47;;;3.20;;
24485;SDS011;13449;49.374;8.584;2023-04-25T01:31:33;4.78;;;3.70;;
24485;SDS011;13449;49.374;8.584;2023-04-25T01:34:03;5.15;;;3.65;;
24485;SDS011;13449;49.374;8.584;2023-04-25T01:36:29;4.78;;;3.28;;
24485;SDS011;13449;49.374;8.584;2023-04-25T01:38:57;4.95;;;3.03;;
24485;SDS011;13449;49.374;8.584;2023-04-25T01:41:23;4.05;;;3.15;;
24485;SDS011;13449;49.374;8.584;2023-04-25T01:43:52;8.73;;;3.67;;
24485;SDS011;13449;49.374;8.584;2023-04-25T01:46:19;6.07;;;4.13;;
24485;SDS011;13449;49.374;8.584;2023-04-25T01:48:46;6.32;;;3.92;;
24485;SDS011;13449;49.374;8.584;2023-04-25T01:51:12;5.45;;;3.85;;
24485;SDS011;13449;49.374;8.584;2023-04-25T01:53:39;4.82;;;3.47;;
24485;SDS011;13449;49.374;8.584;2023-04-25T01:56:06;6.38;;;3.25;;
24485;SDS011;13449;49.374;8.584;2023-04-25T01:58:32;6.40;;;4.18;;
24485;SDS011;13449;49.374;8.584;2023-04-25T02:00:59;4.30;;;3.55;;
24485;SDS011;13449;49.374;8.584;2023-04-25T02:03:25;5.45;;;3.83;;
24485;SDS011;13449;49.374;8.584;2023-04-25T02:05:52;6.50;;;4.20;;
24485;SDS011;13449;49.374;8.584;2023-04-25T02:08:19;3.63;;;3.10;;
24485;SDS011;13449;49.374;8.584;2023-04-25T02:10:48;8.75;;;4.28;;
24485;SDS011;13449;49.374;8.584;2023-04-25T02:13:14;7.32;;;4.95;;
24485;SDS011;13449;49.374;8.584;2023-04-25T02:15:41;11.07;;;4.53;;
24485;SDS011;13449;49.374;8.584;2023-04-25T02:18:07;11.32;;;4.68;;
24485;SDS011;13449;49.374;8.584;2023-04-25T02:20:36;6.53;;;4.50;;
24485;SDS011;13449;49.374;8.584;2023-04-25T02:23:03;11.57;;;4.43;;
24485;SDS011;13449;49.374;8.584;2023-04-25T02:25:30;6.72;;;4.50;;
24485;SDS011;13449;49.374;8.584;2023-04-25T02:27:56;5.25;;;3.88;;
24485;SDS011;13449;49.374;8.584;2023-04-25T02:30:22;7.93;;;4.72;;
24485;SDS011;13449;49.374;8.584;2023-04-25T02:32:49;8.60;;;5.20;;
24485;SDS011;13449;49.374;8.584;2023-04-25T02:35:15;6.53;;;4.82;;
24485;SDS011;13449;49.374;8.584;2023-04-25T02:37:44;13.50;;;5.20;;
24485;SDS011;13449;49.374;8.584;2023-04-25T02:40:11;9.95;;;5.10;;
24485;SDS011;13449;49.374;8.584;2023-04-25T02:42:40;7.57;;;5.35;;
24485;SDS011;13449;49.374;8.584;2023-04-25T02:45:06;7.60;;;4.80;;
24485;SDS011;13449;49.374;8.584;2023-04-25T02:47:36;9.05;;;5.35;;
24485;SDS011;13449;49.374;8.584;2023-04-25T02:50:05;8.13;;;5.13;;
24485;SDS011;13449;49.374;8.584;2023-04-25T02:52:34;9.88;;;6.22;;
24485;SDS011;13449;49.374;8.584;2023-04-25T02:55:01;10.73;;;5.22;;
24485;SDS011;13449;49.374;8.584;2023-04-25T02:57:30;7.05;;;5.22;;
24485;SDS011;13449;49.374;8.584;2023-04-25T02:59:56;11.45;;;4.63;;
24485;SDS011;13449;49.374;8.584;2023-04-25T03:02:23;10.43;;;5.38;;
24485;SDS011;13449;49.374;8.584;2023-04-25T03:04:52;11.95;;;5.50;;
24485;SDS011;13449;49.374;8.584;2023-04-25T03:07:18;7.25;;;4.72;;
24485;SDS011;13449;49.374;8.584;2023-04-25T03:09:45;9.75;;;5.43;;
24485;SDS011;13449;49.374;8.584;2023-04-25T03:12:11;11.18;;;5.03;;
24485;SDS011;13449;49.374;8.584;2023-04-25T03:14:37;6.68;;;4.90;;
24485;SDS011;13449;49.374;8.584;2023-04-25T03:17:04;13.88;;;5.97;;
24485;SDS011;13449;49.374;8.584;2023-04-25T03:19:30;11.30;;;5.72;;
24485;SDS011;13449;49.374;8.584;2023-04-25T03:21:59;13.77;;;7.07;;
24485;SDS011;13449;49.374;8.584;2023-04-25T03:24:25;11.38;;;5.28;;
24485;SDS011;13449;49.374;8.584;2023-04-25T03:26:55;14.25;;;5.38;;
24485;SDS011;13449;49.374;8.584;2023-04-25T03:29:21;11.02;;;5.65;;
24485;SDS011;13449;49.374;8.584;2023-04-25T03:31:50;9.32;;;5.53;;
24485;SDS011;13449;49.374;8.584;2023-04-25T03:34:17;12.43;;;5.50;;
24485;SDS011;13449;49.374;8.584;2023-04-25T03:36:43;9.63;;;6.25;;
24485;SDS011;13449;49.374;8.584;2023-04-25T03:39:10;15.57;;;6.38;;
24485;SDS011;13449;49.374;8.584;2023-04-25T03:41:36;10.57;;;6.13;;
24485;SDS011;13449;49.374;8.584;2023-04-25T03:44:02;11.00;;;5.82;;
24485;SDS011;13449;49.374;8.584;2023-04-25T03:46:29;14.57;;;6.15;;
24485;SDS011;13449;49.374;8.584;2023-04-25T03:48:56;9.00;;;6.28;;
24485;SDS011;13449;49.374;8.584;2023-04-25T03:51:22;12.70;;;6.07;;
24485;SDS011;13449;49.374;8.584;2023-04-25T03:53:51;12.30;;;6.22;;
24485;SDS011;13449;49.374;8.584;2023-04-25T03:56:18;9.38;;;5.63;;
24485;SDS011;13449;49.374;8.584;2023-04-25T03:58:48;9.52;;;6.15;;
24485;SDS011;13449;49.374;8.584;2023-04-25T04:01:17;11.23;;;6.40;;
24485;SDS011;13449;49.374;8.584;2023-04-25T04:03:44;12.25;;;6.53;;
24485;SDS011;13449;49.374;8.584;2023-04-25T04:06:11;11.27;;;6.43;;
24485;SDS011;13449;49.374;8.584;2023-04-25T04:08:39;10.75;;;5.68;;
24485;SDS011;13449;49.374;8.584;2023-04-25T04:11:05;10.45;;;5.97;;
24485;SDS011;13449;49.374;8.584;2023-04-25T04:13:32;15.35;;;6.45;;
24485;SDS011;13449;49.374;8.584;2023-04-25T04:15:58;11.38;;;6.40;;
24485;SDS011;13449;49.374;8.584;2023-04-25T04:18:25;14.40;;;6.80;;
24485;SDS011;13449;49.374;8.584;2023-04-25T04:20:51;11.18;;;6.38;;
24485;SDS011;13449;49.374;8.584;2023-04-25T04:23:19;9.93;;;5.85;;
24485;SDS011;13449;49.374;8.584;2023-04-25T04:25:46;15.68;;;6.85;;
24485;SDS011;13449;49.374;8.584;2023-04-25T04:30:48;20.73;;;6.30;;
24485;SDS011;13449;49.374;8.584;2023-04-25T04:33:17;11.48;;;6.75;;
24485;SDS011;13449;49.374;8.584;2023-04-25T04:35:45;15.57;;;6.65;;
24485;SDS011;13449;49.374;8.584;2023-04-25T04:38:13;12.18;;;6.82;;
24485;SDS011;13449;49.374;8.584;2023-04-25T04:40:41;15.35;;;7.93;;
24485;SDS011;13449;49.374;8.584;2023-04-25T04:43:09;11.48;;;7.07;;
24485;SDS011;13449;49.374;8.584;2023-04-25T04:45:36;16.63;;;7.35;;
24485;SDS011;13449;49.374;8.584;2023-04-25T04:48:05;16.10;;;7.72;;
24485;SDS011;13449;49.374;8.584;2023-04-25T04:50:32;12.30;;;6.13;;
24485;SDS011;13449;49.374;8.584;2023-04-25T04:53:00;9.25;;;6.13;;
24485;SDS011;13449;49.374;8.584;2023-04-25T04:55:28;14.80;;;5.72;;
24485;SDS011;13449;49.374;8.584;2023-04-25T04:57:58;10.77;;;6.50;;
24485;SDS011;13449;49.374;8.584;2023-04-25T05:00:24;14.52;;;7.65;;
24485;SDS011;13449;49.374;8.584;2023-04-25T05:02:54;12.15;;;7.18;;
24485;SDS011;13449;49.374;8.584;2023-04-25T05:05:24;11.05;;;5.40;;
24485;SDS011;13449;49.374;8.584;2023-04-25T05:07:53;13.27;;;7.47;;
24485;SDS011;13449;49.374;8.584;2023-04-25T05:10:20;14.30;;;7.53;;
24485;SDS011;13449;49.374;8.584;2023-04-25T05:12:46;12.93;;;7.35;;
24485;SDS011;13449;49.374;8.584;2023-04-25T05:15:13;11.35;;;7.13;;
24485;SDS011;13449;49.374;8.584;2023-04-25T05:17:40;10.50;;;6.85;;
24485;SDS011;13449;49.374;8.584;2023-04-25T05:20:07;10.63;;;6.65;;
24485;SDS011;13449;49.374;8.584;2023-04-25T05:22:35;12.77;;;6.70;;
24485;SDS011;13449;49.374;8.584;2023-04-25T05:25:02;14.25;;;6.70;;
24485;SDS011;13449;49.374;8.584;2023-04-25T05:27:29;11.15;;;6.10;;
24485;SDS011;13449;49.374;8.584;2023-04-25T05:29:56;9.15;;;6.03;;
24485;SDS011;13449;49.374;8.584;2023-04-25T05:32:22;11.70;;;6.13;;
24485;SDS011;13449;49.374;8.584;2023-04-25T05:34:54;9.18;;;5.38;;
24485;SDS011;13449;49.374;8.584;2023-04-25T05:37:20;6.57;;;4.97;;
24485;SDS011;13449;49.374;8.584;2023-04-25T05:39:49;12.32;;;6.15;;
24485;SDS011;13449;49.374;8.584;2023-04-25T05:42:15;7.78;;;5.10;;
24485;SDS011;13449;49.374;8.584;2023-04-25T05:44:42;11.40;;;6.53;;
24485;SDS011;13449;49.374;8.584;2023-04-25T05:47:08;12.35;;;6.30;;
24485;SDS011;13449;49.374;8.584;2023-04-25T05:49:35;12.18;;;6.65;;
24485;SDS011;13449;49.374;8.584;2023-04-25T05:52:04;9.82;;;5.53;;
24485;SDS011;13449;49.374;8.584;2023-04-25T05:54:30;7.60;;;5.05;;
24485;SDS011;13449;49.374;8.584;2023-04-25T05:56:57;14.90;;;6.40;;
24485;SDS011;13449;49.374;8.584;2023-04-25T05:59:28;9.82;;;5.38;;
24485;SDS011;13449;49.374;8.584;2023-04-25T06:01:55;10.30;;;6.72;;
24485;SDS011;13449;49.374;8.584;2023-04-25T06:04:21;10.27;;;6.65;;
24485;SDS011;13449;49.374;8.584;2023-04-25T06:06:48;10.48;;;6.20;;
24485;SDS011;13449;49.374;8.584;2023-04-25T06:09:14;12.52;;;7.65;;
24485;SDS011;13449;49.374;8.584;2023-04-25T06:11:41;13.13;;;7.38;;
24485;SDS011;13449;49.374;8.584;2023-04-25T06:14:08;15.40;;;6.85;;
24485;SDS011;13449;49.374;8.584;2023-04-25T06:16:34;8.60;;;5.57;;
24485;SDS011;13449;49.374;8.584;2023-04-25T06:19:01;10.93;;;6.03;;
24485;SDS011;13449;49.374;8.584;2023-04-25T06:21:27;10.73;;;5.85;;
24485;SDS011;13449;49.374;8.584;2023-04-25T06:23:53;12.88;;;6.97;;
24485;SDS011;13449;49.374;8.584;2023-04-25T06:26:20;15.00;;;7.50;;
24485;SDS011;13449;49.374;8.584;2023-04-25T06:28:46;11.07;;;6.88;;
24485;SDS011;13449;49.374;8.584;2023-04-25T06:31:13;13.75;;;6.53;;
24485;SDS011;13449;49.374;8.584;2023-04-25T06:33:39;19.63;;;7.38;;
24485;SDS011;13449;49.374;8.584;2023-04-25T06:36:06;12.50;;;7.60;;
24485;SDS011;13449;49.374;8.584;2023-04-25T06:38:35;16.55;;;8.93;;
24485;SDS011;13449;49.374;8.584;2023-04-25T06:41:02;13.73;;;8.55;;
24485;SDS011;13449;49.374;8.584;2023-04-25T06:43:28;11.25;;;6.82;;
24485;SDS011;13449;49.374;8.584;2023-04-25T06:45:59;13.38;;;7.57;;
24485;SDS011;13449;49.374;8.584;2023-04-25T06:48:26;12.80;;;7.75;;
24485;SDS011;13449;49.374;8.584;2023-04-25T06:50:53;12.27;;;7.20;;
24485;SDS011;13449;49.374;8.584;2023-04-25T06:53:20;12.05;;;7.60;;
24485;SDS011;13449;49.374;8.584;2023-04-25T06:55:49;14.52;;;7.55;;
24485;SDS011;13449;49.374;8.584;2023-04-25T06:58:15;14.60;;;7.32;;
24485;SDS011;13449;49.374;8.584;2023-04-25T07:00:42;10.95;;;6.90;;
24485;SDS011;13449;49.374;8.584;2023-04-25T07:03:08;13.55;;;7.25;;
24485;SDS011;13449;49.374;8.584;2023-04-25T07:05:37;12.98;;;7.88;;
24485;SDS011;13449;49.374;8.584;2023-04-25T07:08:04;13.32;;;7.22;;
24485;SDS011;13449;49.374;8.584;2023-04-25T07:10:30;19.55;;;8.20;;
24485;SDS011;13449;49.374;8.584;2023-04-25T07:12:57;16.13;;;7.53;;
24485;SDS011;13449;49.374;8.584;2023-04-25T07:15:23;17.98;;;7.95;;
24485;SDS011;13449;49.374;8.584;2023-04-25T07:17:49;15.73;;;8.00;;
24485;SDS011;13449;49.374;8.584;2023-04-25T07:20:16;12.40;;;8.48;;
24485;SDS011;13449;49.374;8.584;2023-04-25T07:22:43;17.63;;;7.97;;
24485;SDS011;13449;49.374;8.584;2023-04-25T07:25:10;17.73;;;7.25;;
24485;SDS011;13449;49.374;8.584;2023-04-25T07:27:36;15.68;;;7.18;;
24485;SDS011;13449;49.374;8.584;2023-04-25T07:30:03;13.70;;;7.15;;
24485;SDS011;13449;49.374;8.584;2023-04-25T07:32:30;19.65;;;6.65;;
24485;SDS011;13449;49.374;8.584;2023-04-25T07:34:57;15.98;;;7.30;;
24485;SDS011;13449;49.374;8.584;2023-04-25T07:37:26;17.65;;;6.20;;
24485;SDS011;13449;49.374;8.584;2023-04-25T07:39:52;12.55;;;6.78;;
24485;SDS011;13449;49.374;8.584;2023-04-25T07:42:19;12.60;;;6.28;;
24485;SDS011;13449;49.374;8.584;2023-04-25T07:44:46;16.63;;;5.75;;
24485;SDS011;13449;49.374;8.584;2023-04-25T07:47:13;21.02;;;6.00;;
24485;SDS011;13449;49.374;8.584;2023-04-25T07:49:45;8.50;;;5.40;;
24485;SDS011;13449;49.374;8.584;2023-04-25T07:52:11;11.75;;;5.75;;
24485;SDS011;13449;49.374;8.584;2023-04-25T07:54:38;10.90;;;4.85;;
24485;SDS011;13449;49.374;8.584;2023-04-25T07:57:04;11.73;;;5.30;;
24485;SDS011;13449;49.374;8.584;2023-04-25T07:59:32;18.45;;;5.38;;
24485;SDS011;13449;49.374;8.584;2023-04-25T08:01:58;15.23;;;4.93;;
24485;SDS011;13449;49.374;8.584;2023-04-25T08:04:26;13.63;;;4.82;;
24485;SDS011;13449;49.374;8.584;2023-04-25T08:06:53;16.50;;;4.50;;
24485;SDS011;13449;49.374;8.584;2023-04-25T08:09:20;11.93;;;4.78;;
24485;SDS011;13449;49.374;8.584;2023-04-25T08:11:46;6.65;;;4.18;;
24485;SDS011;13449;49.374;8.584;2023-04-25T08:14:15;25.15;;;5.15;;
24485;SDS011;13449;49.374;8.584;2023-04-25T08:16:42;15.93;;;4.90;;
24485;SDS011;13449;49.374;8.584;2023-04-25T08:19:09;13.45;;;4.93;;
24485;SDS011;13449;49.374;8.584;2023-04-25T08:21:39;20.35;;;5.53;;
24485;SDS011;13449;49.374;8.584;2023-04-25T08:24:06;15.10;;;5.05;;
24485;SDS011;13449;49.374;8.584;2023-04-25T08:26:35;18.92;;;5.72;;
24485;SDS011;13449;49.374;8.584;2023-04-25T08:29:03;13.90;;;4.55;;
24485;SDS011;13449;49.374;8.584;2023-04-25T08:31:32;16.75;;;5.78;;
24485;SDS011;13449;49.374;8.584;2023-04-25T08:33:59;14.95;;;4.70;;
24485;SDS011;13449;49.374;8.584;2023-04-25T08:36:25;16.85;;;4.00;;
24485;SDS011;13449;49.374;8.584;2023-04-25T08:38:57;11.13;;;4.05;;
24485;SDS011;13449;49.374;8.584;2023-04-25T08:41:24;11.70;;;4.30;;
24485;SDS011;13449;49.374;8.584;2023-04-25T08:43:51;12.32;;;3.80;;
24485;SDS011;13449;49.374;8.584;2023-04-25T08:46:21;6.80;;;3.92;;
24485;SDS011;13449;49.374;8.584;2023-04-25T08:48:48;13.45;;;4.00;;
24485;SDS011;13449;49.374;8.584;2023-04-25T08:51:20;10.25;;;3.67;;
24485;SDS011;13449;49.374;8.584;2023-04-25T08:53:51;9.98;;;3.33;;
24485;SDS011;13449;49.374;8.584;2023-04-25T08:58:52;10.90;;;3.85;;
24485;SDS011;13449;49.374;8.584;2023-04-25T09:01:21;4.85;;;3.53;;
24485;SDS011;13449;49.374;8.584;2023-04-25T09:03:48;8.52;;;3.88;;
24485;SDS011;13449;49.374;8.584;2023-04-25T09:06:15;13.43;;;4.00;;
24485;SDS011;13449;49.374;8.584;2023-04-25T09:08:44;9.63;;;4.20;;
24485;SDS011;13449;49.374;8.584;2023-04-25T09:11:10;14.13;;;4.22;;
24485;SDS011;13449;49.374;8.584;2023-04-25T09:13:38;15.85;;;4.40;;
24485;SDS011;13449;49.374;8.584;2023-04-25T09:16:11;8.75;;;3.70;;
24485;SDS011;13449;49.374;8.584;2023-04-25T09:18:37;13.23;;;3.45;;
24485;SDS011;13449;49.374;8.584;2023-04-25T09:21:04;6.65;;;3.65;;
24485;SDS011;13449;49.374;8.584;2023-04-25T09:23:48;8.85;;;3.38;;
24485;SDS011;13449;49.374;8.584;2023-04-25T09:26:20;11.80;;;4.57;;
24485;SDS011;13449;49.374;8.584;2023-04-25T09:28:47;9.95;;;3.42;;
24485;SDS011;13449;49.374;8.584;2023-04-25T09:31:23;11.30;;;3.60;;
24485;SDS011;13449;49.374;8.584;2023-04-25T09:33:59;10.73;;;3.50;;
24485;SDS011;13449;49.374;8.584;2023-04-25T09:36:30;9.05;;;3.17;;
24485;SDS011;13449;49.374;8.584;2023-04-25T09:38:57;19.15;;;3.42;;
24485;SDS011;13449;49.374;8.584;2023-04-25T09:41:25;5.75;;;2.47;;
24485;SDS011;13449;49.374;8.584;2023-04-25T09:43:52;12.13;;;4.18;;
24485;SDS011;13449;49.374;8.584;2023-04-25T09:46:32;12.45;;;3.65;;
24485;SDS011;13449;49.374;8.584;2023-04-25T09:49:00;11.15;;;2.78;;
24485;SDS011;13449;49.374;8.584;2023-04-25T09:51:32;12.00;;;4.07;;
24485;SDS011;13449;49.374;8.584;2023-04-25T09:54:01;6.90;;;3.03;;
24485;SDS011;13449;49.374;8.584;2023-04-25T09:56:27;5.50;;;3.10;;
24485;SDS011;13449;49.374;8.584;2023-04-25T09:58:59;12.40;;;3.80;;
24485;SDS011;13449;49.374;8.584;2023-04-25T10:01:25;12.65;;;5.97;;
24485;SDS011;13449;49.374;8.584;2023-04-25T10:03:53;10.07;;;4.88;;
24485;SDS011;13449;49.374;8.584;2023-04-25T10:06:23;8.27;;;3.85;;
24485;SDS011;13449;49.374;8.584;2023-04-25T10:08:54;7.40;;;3.22;;
24485;SDS011;13449;49.374;8.584;2023-04-25T10:11:22;9.13;;;3.70;;
24485;SDS011;13449;49.374;8.584;2023-04-25T10:13:50;7.25;;;2.88;;
24485;SDS011;13449;49.374;8.584;2023-04-25T10:16:18;12.80;;;3.35;;
24485;SDS011;13449;49.374;8.584;2023-04-25T10:18:46;12.20;;;3.10;;
24485;SDS011;13449;49.374;8.584;2023-04-25T10:21:12;7.93;;;3.78;;
24485;SDS011;13449;49.374;8.584;2023-04-25T10:23:40;15.27;;;3.67;;
24485;SDS011;13449;49.374;8.584;2023-04-25T10:26:08;8.27;;;3.28;;
24485;SDS011;13449;49.374;8.584;2023-04-25T10:28:55;5.90;;;3.15;;
24485;SDS011;13449;49.374;8.584;2023-04-25T10:31:25;7.57;;;3.15;;
24485;SDS011;13449;49.374;8.584;2023-04-25T10:33:53;8.93;;;3.63;;
24485;SDS011;13449;49.374;8.584;2023-04-25T10:36:23;9.35;;;3.78;;
24485;SDS011;13449;49.374;8.584;2023-04-25T10:38:53;7.32;;;3.30;;
24485;SDS011;13449;49.374;8.584;2023-04-25T10:41:20;5.75;;;3.20;;
24485;SDS011;13449;49.374;8.584;2023-04-25T10:43:49;8.93;;;3.15;;
24485;SDS011;13449;49.374;8.584;2023-04-25T10:46:25;8.27;;;3.17;;
24485;SDS011;13449;49.374;8.584;2023-04-25T10:49:03;12.93;;;3.15;;
24485;SDS011;13449;49.374;8.584;2023-04-25T10:51:33;8.93;;;3.15;;
24485;SDS011;13449;49.374;8.584;2023-04-25T10:54:20;11.52;;;2.50;;
24485;SDS011;13449;49.374;8.584;2023-04-25T10:56:52;13.23;;;3.67;;
24485;SDS011;13449;49.374;8.584;2023-04-25T10:59:19;7.28;;;3.08;;
24485;SDS011;13449;49.374;8.584;2023-04-25T11:01:51;9.95;;;3.60;;
24485;SDS011;13449;49.374;8.584;2023-04-25T11:04:20;5.33;;;2.77;;
24485;SDS011;13449;49.374;8.584;2023-04-25T11:09:33;24.27;;;4.45;;
24485;SDS011;13449;49.374;8.584;2023-04-25T11:12:01;10.15;;;3.30;;
24485;SDS011;13449;49.374;8.584;2023-04-25T11:14:31;8.63;;;4.13;;
24485;SDS011;13449;49.374;8.584;2023-04-25T11:16:58;10.05;;;3.42;;
24485;SDS011;13449;49.374;8.584;2023-04-25T11:19:28;6.80;;;3.70;;
24485;SDS011;13449;49.374;8.584;2023-04-25T11:21:56;7.28;;;3.90;;
24485;SDS011;13449;49.374;8.584;2023-04-25T11:24:33;8.57;;;2.92;;
24485;SDS011;13449;49.374;8.584;2023-04-25T11:27:01;6.97;;;3.42;;
24485;SDS011;13449;49.374;8.584;2023-04-25T11:29:29;6.20;;;3.10;;
24485;SDS011;13449;49.374;8.584;2023-04-25T11:31:59;10.32;;;2.90;;
24485;SDS011;13449;49.374;8.584;2023-04-25T11:34:28;5.15;;;2.65;;
24485;SDS011;13449;49.374;8.584;2023-04-25T11:37:00;8.40;;;2.80;;
24485;SDS011;13449;49.374;8.584;2023-04-25T11:39:28;7.07;;;2.78;;
24485;SDS011;13449;49.374;8.584;2023-04-25T11:41:57;6.60;;;2.72;;
24485;SDS011;13449;49.374;8.584;2023-04-25T11:44:26;6.88;;;2.50;;
24485;SDS011;13449;49.374;8.584;2023-04-25T11:46:54;7.00;;;2.50;;
24485;SDS011;13449;49.374;8.584;2023-04-25T11:49:21;6.53;;;2.55;;
24485;SDS011;13449;49.374;8.584;2023-04-25T11:51:51;5.47;;;2.25;;
24485;SDS011;13449;49.374;8.584;2023-04-25T11:54:17;5.97;;;2.78;;
24485;SDS011;13449;49.374;8.584;2023-04-25T11:56:47;8.38;;;2.75;;
24485;SDS011;13449;49.374;8.584;2023-04-25T11:59:14;4.43;;;2.30;;
24485;SDS011;13449;49.374;8.584;2023-04-25T12:01:41;5.63;;;2.28;;
24485;SDS011;13449;49.374;8.584;2023-04-25T12:04:21;7.53;;;2.15;;
24485;SDS011;13449;49.374;8.584;2023-04-25T12:09:18;6.68;;;3.05;;
24485;SDS011;13449;49.374;8.584;2023-04-25T12:11:48;8.13;;;3.35;;
24485;SDS011;13449;49.374;8.584;2023-04-25T12:14:22;8.43;;;2.67;;
24485;SDS011;13449;49.374;8.584;2023-04-25T12:16:56;15.32;;;3.38;;
24485;SDS011;13449;49.374;8.584;2023-04-25T12:19:24;4.95;;;2.90;;
24485;SDS011;13449;49.374;8.584;2023-04-25T12:21:52;8.30;;;3.17;;
24485;SDS011;13449;49.374;8.584;2023-04-25T12:24:22;20.63;;;3.35;;
24485;SDS011;13449;49.374;8.584;2023-04-25T12:27:02;3.85;;;2.38;;
24485;SDS011;13449;49.374;8.584;2023-04-25T12:29:31;11.90;;;5.32;;
24485;SDS011;13449;49.374;8.584;2023-04-25T12:32:13;6.53;;;2.80;;
24485;SDS011;13449;49.374;8.584;2023-04-25T12:34:43;3.70;;;2.92;;
24485;SDS011;13449;49.374;8.584;2023-04-25T12:39:39;6.95;;;3.53;;
24485;SDS011;13449;49.374;8.584;2023-04-25T12:42:05;11.85;;;3.13;;
24485;SDS011;13449;49.374;8.584;2023-04-25T12:44:35;8.25;;;3.33;;
24485;SDS011;13449;49.374;8.584;2023-04-25T12:47:01;11.27;;;2.97;;
24485;SDS011;13449;49.374;8.584;2023-04-25T12:49:29;4.47;;;2.60;;
24485;SDS011;13449;49.374;8.584;2023-04-25T12:52:01;5.15;;;2.75;;
24485;SDS011;13449;49.374;8.584;2023-04-25T12:54:27;6.55;;;2.45;;
24485;SDS011;13449;49.374;8.584;2023-04-25T12:56:56;3.63;;;2.30;;
24485;SDS011;13449;49.374;8.584;2023-04-25T12:59:23;13.00;;;3.15;;
24485;SDS011;13449;49.374;8.584;2023-04-25T13:01:49;4.80;;;2.38;;
24485;SDS011;13449;49.374;8.584;2023-04-25T13:04:16;9.13;;;2.50;;
24485;SDS011;13449;49.374;8.584;2023-04-25T13:06:42;6.97;;;2.67;;
24485;SDS011;13449;49.374;8.584;2023-04-25T13:09:09;2.72;;;2.50;;
24485;SDS011;13449;49.374;8.584;2023-04-25T13:11:37;4.85;;;2.42;;
24485;SDS011;13449;49.374;8.584;2023-04-25T13:14:04;6.15;;;1.90;;
24485;SDS011;13449;49.374;8.584;2023-04-25T13:16:30;5.00;;;2.03;;
24485;SDS011;13449;49.374;8.584;2023-04-25T13:18:58;3.95;;;2.53;;
24485;SDS011;13449;49.374;8.584;2023-04-25T13:21:25;9.73;;;2.85;;
24485;SDS011;13449;49.374;8.584;2023-04-25T13:23:51;7.22;;;2.95;;
24485;SDS011;13449;49.374;8.584;2023-04-25T13:26:18;9.68;;;2.95;;
24485;SDS011;13449;49.374;8.584;2023-04-25T13:28:44;7.57;;;2.95;;
24485;SDS011;13449;49.374;8.584;2023-04-25T13:31:11;8.13;;;2.65;;
24485;SDS011;13449;49.374;8.584;2023-04-25T13:33:40;3.88;;;2.70;;
24485;SDS011;13449;49.374;8.584;2023-04-25T13:36:09;6.00;;;3.30;;
24485;SDS011;13449;49.374;8.584;2023-04-25T13:38:36;12.00;;;3.38;;
24485;SDS011;13449;49.374;8.584;2023-04-25T13:41:05;7.90;;;2.92;;
24485;SDS011;13449;49.374;8.584;2023-04-25T13:43:33;7.75;;;2.92;;
24485;SDS011;13449;49.374;8.584;2023-04-25T13:46:02;8.63;;;3.40;;
24485;SDS011;13449;49.374;8.584;2023-04-25T13:48:31;7.45;;;3.10;;
24485;SDS011;13449;49.374;8.584;2023-04-25T13:51:01;9.40;;;3.40;;
24485;SDS011;13449;49.374;8.584;2023-04-25T13:53:27;8.85;;;3.90;;
24485;SDS011;13449;49.374;8.584;2023-04-25T13:55:54;4.07;;;2.70;;
24485;SDS011;13449;49.374;8.584;2023-04-25T13:58:20;4.68;;;3.17;;
24485;SDS011;13449;49.374;8.584;2023-04-25T14:00:47;7.95;;;3.47;;
24485;SDS011;13449;49.374;8.584;2023-04-25T14:03:13;12.70;;;3.53;;
24485;SDS011;13449;49.374;8.584;2023-04-25T14:05:40;19.80;;;8.43;;
24485;SDS011;13449;49.374;8.584;2023-04-25T14:08:07;22.38;;;8.52;;
24485;SDS011;13449;49.374;8.584;2023-04-25T14:10:35;40.97;;;13.07;;
24485;SDS011;13449;49.374;8.584;2023-04-25T14:13:03;33.85;;;8.80;;
24485;SDS011;13449;49.374;8.584;2023-04-25T14:15:34;11.30;;;4.93;;
24485;SDS011;13449;49.374;8.584;2023-04-25T14:18:01;8.00;;;3.65;;
24485;SDS011;13449;49.374;8.584;2023-04-25T14:20:28;8.93;;;2.70;;
24485;SDS011;13449;49.374;8.584;2023-04-25T14:22:55;7.65;;;2.83;;
24485;SDS011;13449;49.374;8.584;2023-04-25T14:25:23;6.22;;;3.20;;
24485;SDS011;13449;49.374;8.584;2023-04-25T14:27:51;10.90;;;2.97;;
24485;SDS011;13449;49.374;8.584;2023-04-25T14:30:17;7.75;;;2.85;;
24485;SDS011;13449;49.374;8.584;2023-04-25T14:32:45;11.57;;;3.25;;
24485;SDS011;13449;49.374;8.584;2023-04-25T14:35:12;8.30;;;2.80;;
24485;SDS011;13449;49.374;8.584;2023-04-25T14:37:39;13.15;;;3.20;;
24485;SDS011;13449;49.374;8.584;2023-04-25T14:40:08;8.27;;;3.47;;
24485;SDS011;13449;49.374;8.584;2023-04-25T14:42:37;8.85;;;3.08;;
24485;SDS011;13449;49.374;8.584;2023-04-25T14:45:06;5.20;;;3.03;;
24485;SDS011;13449;49.374;8.584;2023-04-25T14:47:36;8.57;;;3.33;;
24485;SDS011;13449;49.374;8.584;2023-04-25T14:50:03;5.47;;;2.67;;
24485;SDS011;13449;49.374;8.584;2023-04-25T14:52:31;17.17;;;2.83;;
24485;SDS011;13449;49.374;8.584;2023-04-25T14:54:57;7.78;;;2.60;;
24485;SDS011;13449;49.374;8.584;2023-04-25T14:57:26;10.05;;;3.33;;